Terminal Aerodrome Forecast
Issued by NWS Wilmington, OH

Current Version | Previous Version | Graphics & Text | Print | Product List | Glossary On
Versions: 1 2 3 4 5 6 7 8 9 10 11 12 13 14 15 16 17 18 19
264
FTUS41 KILN 210528
TAFDAY
TAF
KDAY 210528Z 2106/2206 VRB04KT P6SM BKN040 BKN200
     FM211400 18010KT P6SM SCT040 BKN200
     FM220300 15004KT P6SM SCT025 BKN070=

USA.gov is the U.S. government's official web portal to all federal, state and local government web resources and services.